Site contains unofficial IBTrACS data. Visit the IBTrACS Website to access archived data.

1866 NOT_NAMED (1866060S13091)


IBTrACS version v04r00. Visit IBTrACS website for data access.
Please direct all questions to the IBTrACS Q and A forum

Storm track - Intensity - Wind Radii - Intensity Data - Source Data - All data

Summary Information

Storm ID 1866060S13091
Start Feb 28 18Z
End Mar 8 06Z
ATCF IDs
Track status Best track data.

Storm track plot

Map of storm track

Intensity plots

No Intensity information for this storm


Radial wind information

No radial wind information for this storm


Position and Intensity Table

BASIN ISO_TIME_________ NATURE LAT LON
degrees north degrees east
SI 1866-02-28 18:00:00 NR -13.30 90.60
SI 21:00:00 NR -13.37 90.40
SI 1866-03-01 00:00:00 NR -13.45 90.22
SI 03:00:00 NR -13.52 90.04
SI 06:00:00 NR -13.50 90.14
SI 09:00:00 NR -13.51 90.16
SI 12:00:00 NR -13.55 90.13
SI 15:00:00 NR -13.59 90.07
SI 18:00:00 NR -13.66 89.92
SI 21:00:00 NR -13.73 89.76
SI 1866-03-02 00:00:00 NR -13.79 89.60
SI 03:00:00 NR -13.85 89.45
SI 06:00:00 NR -13.90 89.30
SI 09:00:00 NR -13.95 89.18
SI 12:00:00 NR -14.00 89.07
SI 15:00:00 NR -14.05 88.97
SI 18:00:00 NR -14.10 88.86
SI 21:00:00 NR -14.16 88.74
SI 1866-03-03 00:00:00 NR -14.22 88.61
SI 03:00:00 NR -14.28 88.48
SI 06:00:00 NR -14.35 88.35
SI 09:00:00 NR -14.42 88.23
SI 12:00:00 NR -14.49 88.12
SI 15:00:00 NR -14.57 88.02
SI 18:00:00 NR -14.64 87.90
SI 21:00:00 NR -14.72 87.78
SI 1866-03-04 00:00:00 NR -14.80 87.66
SI 03:00:00 NR -14.87 87.53
SI 06:00:00 NR -14.95 87.40
SI 09:00:00 NR -15.02 87.27
SI 12:00:00 NR -15.10 87.14
SI 15:00:00 NR -15.17 87.01
SI 18:00:00 NR -15.25 86.90
SI 21:00:00 NR -15.31 86.81
SI 1866-03-05 00:00:00 NR -15.38 86.72
SI 03:00:00 NR -15.46 86.63
SI 06:00:00 NR -15.55 86.50
SI 09:00:00 NR -15.65 86.33
SI 12:00:00 NR -15.77 86.14
SI 15:00:00 NR -15.90 85.93
SI 18:00:00 NR -16.05 85.72
SI 21:00:00 NR -16.21 85.52
SI 1866-03-06 00:00:00 NR -16.29 85.45
SI 03:00:00 NR -16.31 85.43
SI 06:00:00 NR -16.26 85.50
SI 09:00:00 NR -16.10 85.65
SI 12:00:00 NR -16.32 85.37
SI 15:00:00 NR -16.56 85.06
SI 18:00:00 NR -16.82 84.75
SI 21:00:00 NR -17.08 84.43
SI 1866-03-07 00:00:00 NR -17.34 84.13
SI 03:00:00 NR -17.58 83.85
SI 06:00:00 NR -17.80 83.60
SI 09:00:00 NR -17.99 83.40
SI 12:00:00 NR -18.16 83.24
SI 15:00:00 NR -18.30 83.11
SI 18:00:00 NR -18.42 83.01
SI 21:00:00 NR -18.53 82.94
SI 1866-03-08 00:00:00 NR -18.63 82.88
SI 03:00:00 NR -18.71 82.84
SI 06:00:00 NR -18.80 82.80

Source Information

Agency Information
USA
TOKYO
CMA
HKO
NEWDELHI
REUNION WMO-Best-Tracks.txt:Line=644:xxxx866093
BOM
NADI
WELLINGTON
DS824
TD9636 cons_worldwide_trop_cyclone_18710101-19891231-005:Line=864
TD9635
NEUMANN
MLC

All available IBTrACS Data

SEASON BASIN SUBBASIN ISO_TIME_________ NATURE LAT LON DIST2LAND LANDFALL IFLAG USA SSHS REUNION LAT REUNION LON REUNION TYPE REUNION TNUM TD9636 LAT TD9636 LON TD9636 STAGE STORM SPEED STORM DIR
Year degrees north degrees east km km 1 degrees north degrees east 1 degrees north degrees east kts degrees
1866 SI WA 1866-02-28 18:00:00 NR -13.30 90.60 1588 1588 __________O___ -1 -13.30 90.60 7 4 249
1866 SI WA 21:00:00 NR -13.37 90.40 1610 1610 __________P___ -1 -13.37 90.40 7 4 249
1866 SI WA 1866-03-01 00:00:00 NR -13.45 90.22 1623 1623 __________P___ -1 -13.45 90.22 7 4 247
1866 SI WA 03:00:00 NR -13.52 90.04 1645 1639 __________P___ -1 -13.52 90.04 7 1 234
1866 SI WA 06:00:00 NR -13.50 90.14 1639 1632 _____O____O___ -1 -13.10 91.10 99 9.90 -13.60 89.90 7 1 85
1866 SI WA 09:00:00 NR -13.51 90.16 1632 1632 _____P____P___ -1 -13.18 90.91 99 -13.68 89.79 7 0 0
1866 SI WA 12:00:00 NR -13.55 90.13 1639 1639 _____P____P___ -1 -13.27 90.72 99 -13.76 89.69 7 1 230
1866 SI WA 15:00:00 NR -13.59 90.07 1647 1647 _____P____P___ -1 -13.35 90.53 99 -13.83 89.60 7 2 240
1866 SI MM 18:00:00 NR -13.66 89.92 1669 1669 _____P____O___ -1 -13.43 90.35 99 -13.90 89.50 7 3 244
1866 SI MM 21:00:00 NR -13.73 89.76 1676 1676 _____P____P___ -1 -13.50 90.17 99 -13.96 89.36 7 3 248
1866 SI MM 1866-03-02 00:00:00 NR -13.79 89.60 1698 1698 _____P____P___ -1 -13.57 90.00 99 -14.01 89.20 7 3 249
1866 SI MM 03:00:00 NR -13.85 89.45 1711 1711 _____P____P___ -1 -13.64 89.85 99 -14.05 89.04 7 3 249
1866 SI MM 06:00:00 NR -13.90 89.30 1727 1727 _____O____O___ -1 -13.70 89.70 99 9.90 -14.10 88.90 7 3 248
1866 SI MM 09:00:00 NR -13.95 89.18 1742 1742 _____P____P___ -1 -13.76 89.57 99 -14.15 88.79 7 2 246
1866 SI MM 12:00:00 NR -14.00 89.07 1749 1749 _____P____P___ -1 -13.81 89.44 99 -14.19 88.70 7 2 245
1866 SI MM 15:00:00 NR -14.05 88.97 1756 1756 _____P____P___ -1 -13.85 89.33 99 -14.24 88.61 7 2 244
1866 SI MM 18:00:00 NR -14.10 88.86 1771 1771 _____P____O___ -1 -13.90 89.22 99 -14.30 88.50 7 3 244
1866 SI MM 21:00:00 NR -14.16 88.74 1794 1794 _____P____P___ -1 -13.95 89.11 99 -14.37 88.36 7 3 244
1866 SI MM 1866-03-03 00:00:00 NR -14.22 88.61 1801 1801 _____P____P___ -1 -13.99 89.01 99 -14.44 88.20 7 3 244
1866 SI MM 03:00:00 NR -14.28 88.48 1816 1816 _____P____P___ -1 -14.04 88.91 99 -14.52 88.04 7 3 242
1866 SI MM 06:00:00 NR -14.35 88.35 1823 1832 _____O____O___ -1 -14.10 88.80 99 9.90 -14.60 87.90 7 3 240
1866 SI MM 09:00:00 NR -14.42 88.23 1846 1846 _____P____P___ -1 -14.17 88.68 99 -14.67 87.79 7 3 237
1866 SI MM 12:00:00 NR -14.49 88.12 1861 1861 _____P____P___ -1 -14.24 88.56 99 -14.75 87.69 7 3 236
1866 SI MM 15:00:00 NR -14.57 88.02 1877 1877 _____P____P___ -1 -14.31 88.43 99 -14.82 87.60 7 3 235
1866 SI MM 18:00:00 NR -14.64 87.90 1884 1884 _____P____O___ -1 -14.38 88.31 99 -14.90 87.50 7 3 236
1866 SI MM 21:00:00 NR -14.72 87.78 1899 1899 _____P____P___ -1 -14.46 88.18 99 -14.97 87.38 7 3 237
1866 SI MM 1866-03-04 00:00:00 NR -14.80 87.66 1915 1915 _____P____P___ -1 -14.54 88.05 99 -15.05 87.26 7 3 238
1866 SI MM 03:00:00 NR -14.87 87.53 1937 1937 _____P____P___ -1 -14.62 87.93 99 -15.12 87.13 7 3 238
1866 SI MM 06:00:00 NR -14.95 87.40 1944 1944 _____O____O___ -1 -14.70 87.80 99 9.90 -15.20 87.00 7 3 239
1866 SI MM 09:00:00 NR -15.02 87.27 1960 1960 _____P____P___ -1 -14.77 87.67 99 -15.28 86.87 7 3 239
1866 SI MM 12:00:00 NR -15.10 87.14 1983 1983 _____P____P___ -1 -14.85 87.55 99 -15.35 86.74 7 3 239
1866 SI MM 15:00:00 NR -15.17 87.01 1998 1998 _____P____P___ -1 -14.92 87.42 99 -15.43 86.61 7 3 237
1866 SI MM 18:00:00 NR -15.25 86.90 2005 2005 _____P____O___ -1 -15.00 87.29 99 -15.50 86.50 7 2 235
1866 SI MM 21:00:00 NR -15.31 86.81 2021 2021 _____P____P___ -1 -15.07 87.17 99 -15.55 86.45 7 2 232
1866 SI MM 1866-03-05 00:00:00 NR -15.38 86.72 2036 2036 _____P____P___ -1 -15.15 87.04 99 -15.61 86.40 7 2 231
1866 SI MM 03:00:00 NR -15.46 86.63 2052 2052 _____P____P___ -1 -15.22 86.92 99 -15.69 86.33 7 3 231
1866 SI MM 06:00:00 NR -15.55 86.50 2059 2067 _____O____O___ -1 -15.30 86.80 99 9.90 -15.80 86.20 7 3 235
1866 SI MM 09:00:00 NR -15.65 86.33 2090 2090 _____P____P___ -1 -15.35 86.71 99 -15.95 85.96 7 4 238
1866 SI MM 12:00:00 NR -15.77 86.14 2113 2113 _____P____P___ -1 -15.40 86.62 99 -16.14 85.66 7 5 237
1866 SI MM 15:00:00 NR -15.90 85.93 2135 2135 _____P____P___ -1 -15.45 86.54 99 -16.36 85.33 7 5 235
1866 SI MM 18:00:00 NR -16.05 85.72 2166 2166 _____P____O___ -1 -15.50 86.45 99 -16.60 85.00 7 5 232
1866 SI MM 21:00:00 NR -16.21 85.52 2189 2189 _____P____P___ -1 -15.57 86.34 99 -16.86 84.70 7 4 228
1866 SI MM 1866-03-06 00:00:00 NR -16.29 85.45 2205 2205 _____P____P___ -1 -15.66 86.22 99 -17.13 84.42 7 1 217
1866 SI MM 03:00:00 NR -16.31 85.43 2205 2197 _____P____P___ -1 -15.76 86.07 99 -17.41 84.16 7 1 65
1866 SI MM 06:00:00 NR -16.26 85.50 2197 2166 _____O____O___ -1 -15.90 85.90 99 9.90 -17.70 83.90 7 3 43
1866 SI MM 09:00:00 NR -16.10 85.65 2166 2166 _____P________ -1 -16.10 85.65 99 7 1 244
1866 SI MM 12:00:00 NR -16.32 85.37 2205 2205 _____P________ -1 -16.32 85.37 99 7 7 230
1866 SI MM 15:00:00 NR -16.56 85.06 2251 2251 _____P________ -1 -16.56 85.06 99 7 8 230
1866 SI MM 18:00:00 NR -16.82 84.75 2297 2297 _____P________ -1 -16.82 84.75 99 8 229
1866 SI MM 21:00:00 NR -17.08 84.43 2343 2343 _____P________ -1 -17.08 84.43 99 8 229
1866 SI MM 1866-03-07 00:00:00 NR -17.34 84.13 2381 2381 _____P________ -1 -17.34 84.13 99 8 228
1866 SI MM 03:00:00 NR -17.58 83.85 2428 2428 _____P________ -1 -17.58 83.85 99 7 227
1866 SI MM 06:00:00 NR -17.80 83.60 2458 2458 _____O________ -1 -17.80 83.60 99 9.90 6 226
1866 SI MM 09:00:00 NR -17.99 83.40 2489 2489 _____P________ -1 -17.99 83.40 99 5 224
1866 SI MM 12:00:00 NR -18.16 83.24 2520 2520 _____P________ -1 -18.16 83.24 99 4 222
1866 SI MM 15:00:00 NR -18.30 83.11 2535 2535 _____P________ -1 -18.30 83.11 99 3 219
1866 SI MM 18:00:00 NR -18.42 83.01 2551 2551 _____P________ -1 -18.42 83.01 99 3 215
1866 SI MM 21:00:00 NR -18.53 82.94 2566 2566 _____P________ -1 -18.53 82.94 99 2 212
1866 SI MM 1866-03-08 00:00:00 NR -18.63 82.88 2574 2574 _____P________ -1 -18.63 82.88 99 2 207
1866 SI MM 03:00:00 NR -18.71 82.84 2589 2589 _____P________ -1 -18.71 82.84 99 2 203
1866 SI MM 06:00:00 NR -18.80 82.80 2597 _____O________ -1 -18.80 82.80 99 9.90 2 208